Thursday, June 30, 2016
01:21 UTC
  |  Log In   |  Register Free
Airport Search:

Clinton-Sampson County Airport
(KCTZ)

Clinton-Sampson County Airport Diagram
No Airport Diagram Available

FAA data valid effective May 26 2016 - Jul 21 2016 (unless otherwise noted).

 
 
 
 
 
 
 
 
 
 
 
 
 
 
Current Aviation Weather for KCTZ

Weather Summary


The most recent METAR observation for CTZ was updated at: 12:55 UTC
METAR for KCTZ is not available. Closest METAR is for KDPL
KCTZ  (most recent observation was updatred at 30:00 UTC)
300055Z AUTO 00000KT 10SM -RA SCT013 SCT026 BKN065 25/23 A2995 RMK AO2 P0001 T02540231

KDPL  (18.9 nm SW)   (most recent observation was updated at 30:01 UTC)
300105Z AUTO 00000KT 10SM CLR 26/22 A2996 RMK AO2 T02630220

KEYF  (24.8 nm NE)   (most recent observation was updated at 30:01 UTC)
300100Z AUTO 17005KT 10SM CLR 26/20 A2995 RMK AO2 T02600197

TAF for KCTZ is not available.
KFAY  (25.3 nm SE)   (most recent observation was updatred at 29:23 UTC)
292343Z 3000/3024 VRB05KT P6SM SCT050 TEMPO 3000/3003 VRB20G30KT 3SM SHRA BKN035


KGSB  (29.6 nm SW)   (most recent observation was updatred at 30:00 UTC)
AMD 300005Z 3000/0102 16009KT 9999 FEW050 QNH2990INS TEMPO 3000/3002 27020G33KT 2400 TSRAGR BKN020CB BECMG 3007/3008 VRB04KT 8000 BR FEW005 SCT030 QNH2994INS BECMG 3019/3020 17009KT 9000 -SHRA BKN040 BKN090 QNH2996INS TEMPO 3020/3023 23015G25KT 3200 -TSRA SCT010 BKN020CB TX33/3020Z TN20/3009Z AMD 300005


KFBG  (29.6 nm SE)   (most recent observation was updatred at 30:01 UTC)
300100Z 3001/0107 17006KT 9999 SCT050 QNH2987INS TEMPO 3001/3002 28035G50KT 0800 +TSRAGR OVC015CB TEMPO 3002/3003 19012KT 6000 -TSRA BKN015CB BECMG 3009/3010 VRB04KT 8000 BR FEW020 QNH2996INS BECMG 3014/3015 19009KT 9999 NSW SCT040 QNH2997INS TEMPO 3020/3024 20035G50KT 0800 +TSRAGR BKN015CB BECMG 3023/3024 22004KT 9999 FEW030 QNH2993INS TX31/3021Z TN22/3012Z
GlobalAir.com is loading additional information.
 Current Weather at CTZ
80.0 F° (26.6 C°)

North winds at 0.0 mph
Pressure:
29.94 in
Humidity:
69%
Wind:
North at 0.0 mph
Dew Point:
68.7 F° (20.4 C°)
Visibility:
10.00 mi
CTZ NOAA Radar




Find All Airport Services Find A Hotel Find A Rental Car Find A Golf Course Find A Restaurant $100 Hamburger



Airport Weather Forecast for KCTZ

Translated METAR for KCTZ (0055 UTC)
METAR:
KCTZ 300055Z AUTO 00000KT 10SM -RA SCT013 SCT026 BKN065 25/23 A2995 RMK AO2 P0001 T02540231
Conditions at:
KCTZ (Clinton-Sampson County, NC) observed 0055 UTC 29 June 2016
Temperature:
25°C (77°F)
Dewpoint:
23°C (73.4°F) [RH = 88.7]
Pressure:
29.95 inches Hg (1014.2 mb)
Winds:
from the N (000 degrees) at 0 mph (0 knots: 0 m/s)
Visibility:
10 mile(s)
Ceiling:
6,500 feet AGL
Clouds:
Scattered Clouds at 1,300 feet AGL
Scattered Clouds at 2,600 feet AGL
Broken Cloud Cover at 6,500 feet AGL
Remarks:
site is un-manned
site is automated and HAS a precipitation sensor

Translated TAF for KFAY (Fayetteville Rgnl/Grannis Field, NC) (2343 UTC)
TAF text:
KFAY 292343Z 3000/3024 VRB05KT P6SM SCT050
Forecast period:
Thursday Jun 30 2016 00:00 UTC - Thursday Jun 30 2016 24:00 UTC
Forecast type:
FROM: standard forecast or significant change
Winds:
variable wind direction at 5.8 mph (5 knots: 2.6 m/s)
Visibility:
6 or more mile(s) (9.7+ km)
Ceiling:
at least 12,000 feet AGL
Clouds:
Scattered Clouds at 5,000 feet AGL
Weather:
no significant weather observed at this time
TAF text:
3000/3003 VRB20G30KT 3SM SHRA BKN035
Forecast period:
Friday Jul 01 2016 00:00 UTC - Friday Jul 01 2016 03:00 UTC
Forecast type:
FROM: standard forecast or significant change
Winds:
variable wind direction at 23 mph (20 knots: 10.3 m/s)
gusting to 34.5 mph (30 knots: 15.4 m/s)
Visibility:
3 mile(s) (4.8 km)
Ceiling:
3,500 feet AGL
Clouds:
Broken Cloud Cover at 3,500 feet AGL
Weather:
Moderate Shower(s) Rain
FBO's on the Field
FBO Company Facility Photos Services Transportation Aviation Fuel Prices: Prices include tax
Catering Weather Repair Courtesy Rental Type 100LL JetA JetA+ MOGAS 8087
 
Clinton Flying Service

This FBO has not yet been rated
FS:Shell
Last Updated: Jun-14
Login to update fuel prices
SS:
Contact Clinton Flying ServiceMore FBO Information
 
Add another FBO Facility Photos Catering Weather Repair Courtesy Rental Type 100LL JetA JetA+ MOGAS 8087
Services Transportation Aviation Fuel Prices: Prices include tax


model-print
model-print
model-print
model-print